Terminal Aerodrome Forecast
Issued by NWS Cleveland, OH

Home | Current Version | Previous Version | Text Only | Print | Product List | Glossary On
Versions: 1 2 3 4 5 6 7 8 9 10 11 12 13 14 15 16 17 18 19 20 21 22
000
FTUS41 KCLE 231200 AAA
TAFYNG
TAF AMD
KYNG 231226Z 2312/2412 30014G20KT P6SM OVC015
     FM231600 32012G20KT P6SM SCT015 OVC025
      TEMPO 2316/2320 SCT025 BKN035
     FM232000 32012G20KT P6SM SCT040
     FM232300 34008KT P6SM SCT250
     FM240500 VRB03KT P6SM SCT100 BKN250=

USA.gov is the U.S. government's official web portal to all federal, state and local government web resources and services.